createdAt,value
2022-11-16T10:25:10.764Z,47.35
2022-11-16T10:26:56.900Z,53.75
2022-11-16T10:28:43.153Z,72.83
2022-11-16T10:30:29.411Z,71.37
2022-11-16T10:32:16.042Z,71.84
2022-11-16T10:34:02.279Z,73.47
2022-11-16T10:35:50.807Z,72.64
2022-11-16T10:37:40.162Z,72.44
2022-11-16T10:39:29.809Z,70.71
2022-11-16T10:41:19.376Z,71.85
2022-11-16T10:43:08.736Z,71.37
2022-11-16T10:44:58.073Z,71.17
2022-11-16T10:46:47.447Z,71.26
2022-11-16T10:48:36.849Z,71.76
2022-11-16T10:50:26.174Z,72.02
2022-11-16T10:52:15.540Z,73.32
2022-11-16T10:54:05.089Z,70.87
2022-11-16T10:55:54.488Z,71.43
2022-11-16T10:57:43.914Z,70.38
2022-11-16T10:59:33.177Z,71.21
2022-11-16T11:01:22.749Z,71.90
2022-11-16T11:03:12.169Z,71.50
2022-11-16T11:05:01.446Z,71.77
2022-11-16T11:06:50.820Z,70.25
2022-11-16T11:08:40.204Z,70.96
2022-11-16T11:10:29.614Z,71.09
2022-11-16T11:12:19.085Z,75.00
2022-11-16T11:14:09.412Z,73.80
2022-11-16T11:15:58.994Z,71.73
2022-11-16T11:17:48.339Z,70.73
2022-11-16T11:19:38.456Z,71.01
2022-11-16T11:21:27.786Z,70.58
2022-11-16T11:23:17.299Z,71.54
2022-11-16T11:25:06.676Z,70.96
2022-11-16T11:26:56.009Z,70.16
2022-11-16T11:28:45.409Z,71.70
2022-11-16T11:30:34.822Z,70.81
2022-11-16T11:32:24.810Z,70.24
2022-11-16T11:34:14.197Z,72.71
2022-11-16T11:36:03.607Z,70.44
2022-11-16T11:37:53.389Z,71.17
2022-11-16T11:39:42.795Z,71.43
2022-11-16T11:41:32.120Z,71.35
2022-11-16T11:43:21.522Z,70.23
2022-11-16T11:45:11.123Z,69.98
2022-11-16T17:55:00.878Z,64.06
2022-11-16T17:56:50.237Z,63.09
2022-11-16T17:58:40.007Z,62.37
2022-11-16T18:00:29.488Z,61.97
2022-11-16T18:02:25.276Z,62.15
2022-11-16T18:04:14.752Z,62.36
2022-11-16T18:06:04.211Z,64.98
2022-11-16T18:07:53.584Z,61.91
2022-11-16T18:09:43.232Z,63.84
2022-11-16T18:11:32.787Z,62.43
2022-11-16T18:13:22.521Z,56.67
2022-11-16T18:15:29.578Z,59.35
2022-11-16T18:17:07.505Z,60.37
2022-11-16T18:18:56.980Z,64.02
2022-11-16T18:20:46.446Z,62.05
2022-11-16T18:22:35.905Z,60.12
2022-11-16T18:24:25.616Z,60.38
2022-11-16T18:26:15.103Z,62.15
2022-11-16T18:28:04.859Z,61.69
2022-11-16T18:29:54.353Z,58.46
2022-11-16T18:31:44.030Z,61.33
2022-11-16T18:33:34.019Z,62.41
2022-11-16T18:35:23.511Z,63.21
2022-11-16T18:37:12.960Z,61.64
2022-11-16T18:39:02.669Z,61.31
2022-11-16T18:40:52.057Z,61.83
2022-11-16T18:42:41.502Z,57.67
2022-11-16T18:44:31.099Z,59.69
2022-11-16T18:46:21.743Z,60.02
2022-11-16T18:48:11.240Z,62.85
2022-11-16T18:50:00.741Z,58.97
2022-11-16T18:51:50.239Z,58.35
2022-11-16T18:53:41.207Z,64.34
2022-11-16T18:55:30.686Z,60.45
2022-11-16T18:57:20.017Z,61.43
2022-11-16T18:59:09.489Z,61.64
2022-11-16T19:00:59.290Z,63.75
2022-11-16T19:02:48.721Z,60.32
2022-11-16T19:04:38.251Z,62.64
2022-11-16T19:06:27.745Z,60.57
2022-11-16T19:08:17.431Z,63.62
2022-11-16T19:10:07.946Z,63.48
2022-11-16T19:11:57.432Z,62.88
2022-11-16T19:13:46.959Z,55.59
2022-11-16T19:15:36.461Z,59.69
2022-11-16T19:17:26.383Z,60.02
2022-11-16T19:19:15.788Z,60.80
2022-11-16T19:21:05.254Z,62.81
2022-11-16T19:22:54.894Z,65.24
2022-11-16T19:24:44.415Z,61.15
2022-11-16T19:26:33.882Z,62.65
2022-11-16T19:28:23.353Z,62.19
2022-11-16T19:30:13.111Z,57.57
2022-11-16T19:32:02.627Z,61.19
2022-11-16T19:33:52.197Z,57.09
2022-11-16T19:35:41.898Z,62.11
2022-11-16T19:37:31.608Z,57.98
2022-11-16T19:39:21.103Z,61.79
2022-11-16T19:41:10.562Z,64.53
2022-11-16T19:43:00.052Z,59.77
2022-11-16T19:44:55.664Z,62.74
2022-11-16T19:46:45.116Z,58.55
2022-11-16T19:48:34.585Z,62.26
2022-11-16T19:50:24.201Z,59.78
2022-11-16T19:52:13.807Z,58.61
2022-11-16T19:54:03.232Z,62.61
2022-11-16T19:55:52.670Z,63.81
2022-11-16T19:57:42.184Z,55.87
2022-11-16T19:59:31.881Z,60.04
2022-11-16T20:01:21.409Z,63.04
2022-11-16T20:03:11.101Z,58.07
2022-11-16T20:05:00.571Z,53.46
2022-11-16T20:06:50.330Z,55.19
2022-11-16T20:08:39.765Z,59.05
2022-11-16T20:10:29.285Z,60.09
2022-11-16T20:12:18.779Z,57.48
2022-11-16T20:14:08.457Z,60.06
2022-11-16T20:15:57.790Z,57.39
2022-11-16T20:17:47.261Z,62.78
2022-11-16T20:19:36.745Z,59.28
2022-11-16T20:21:26.682Z,59.73
2022-11-16T20:23:16.183Z,57.83
2022-11-16T20:25:05.606Z,61.84
2022-11-16T20:26:55.081Z,59.94
2022-11-16T20:28:44.727Z,59.32
2022-11-16T20:30:34.189Z,67.65
2022-11-16T20:32:23.658Z,61.04
2022-11-16T20:34:13.118Z,60.33
2022-11-16T20:36:02.643Z,59.99
2022-11-16T20:37:52.133Z,59.30
2022-11-16T20:39:42.006Z,59.17
2022-11-16T20:41:31.384Z,60.17
2022-11-16T20:43:21.051Z,59.79
2022-11-16T20:45:10.555Z,62.19
2022-11-16T20:47:00.045Z,56.75
2022-11-16T20:48:49.408Z,56.06
2022-11-16T20:50:38.914Z,59.13
2022-11-16T20:52:28.332Z,59.08
2022-11-16T20:54:17.746Z,56.22
2022-11-16T20:56:07.238Z,61.14
2022-11-16T20:57:56.906Z,59.24
2022-11-16T20:59:46.410Z,56.69
2022-11-16T21:01:35.927Z,57.07
2022-11-16T21:03:25.356Z,57.77
2022-11-16T21:05:15.012Z,62.49
2022-11-16T21:07:04.548Z,60.02
2022-11-16T21:08:54.019Z,57.67
2022-11-16T21:10:43.538Z,59.19
2022-11-16T21:12:33.122Z,58.14
2022-11-16T21:14:22.577Z,58.59
2022-11-16T21:16:12.056Z,58.50
2022-11-16T21:18:01.800Z,58.64
2022-11-16T21:20:20.011Z,55.88
2022-11-16T21:21:46.802Z,55.38
2022-11-16T21:23:36.590Z,60.63
2022-11-16T21:25:26.338Z,58.83
2022-11-16T21:27:17.263Z,57.49
2022-11-16T21:29:06.772Z,58.41
2022-11-16T21:30:56.175Z,59.19
2022-11-16T21:32:45.701Z,59.92
2022-11-16T21:34:39.951Z,59.91
2022-11-16T21:36:30.000Z,61.95
2022-11-16T21:38:19.479Z,60.71
2022-11-16T21:40:08.944Z,58.24
2022-11-16T21:41:58.620Z,58.21
2022-11-16T21:43:48.070Z,62.58
2022-11-16T21:45:37.537Z,60.30
2022-11-16T21:47:27.050Z,61.35
2022-11-16T21:49:16.674Z,64.49
2022-11-16T21:51:06.159Z,62.35
2022-11-16T21:52:55.603Z,56.84
2022-11-16T21:54:45.080Z,60.49
2022-11-16T21:56:34.757Z,64.39
2022-11-16T21:58:24.219Z,62.35
2022-11-16T22:00:13.669Z,65.44
2022-11-16T22:02:03.228Z,64.61
2022-11-16T22:03:52.783Z,62.12
2022-11-16T22:05:42.303Z,61.89
2022-11-16T22:07:31.787Z,63.74
2022-11-16T22:09:21.260Z,64.18
2022-11-16T22:11:10.935Z,62.59
2022-11-16T22:13:00.427Z,64.17
2022-11-16T22:14:50.182Z,62.36
2022-11-16T22:16:39.663Z,60.37
2022-11-16T22:18:29.463Z,63.26
2022-11-16T22:20:18.854Z,65.48
2022-11-16T22:22:08.321Z,63.13
2022-11-16T22:23:57.793Z,64.17
2022-11-16T22:25:47.916Z,63.13
2022-11-16T22:27:58.431Z,64.60
2022-11-16T22:29:32.722Z,65.99
2022-11-16T22:31:22.216Z,64.67
2022-11-16T22:33:11.732Z,63.31
2022-11-16T22:35:01.317Z,63.49
2022-11-16T22:36:50.727Z,67.18
2022-11-16T22:38:40.146Z,65.13
2022-11-16T22:40:29.802Z,65.18
2022-11-16T22:42:19.655Z,64.54
2022-11-16T22:44:09.179Z,66.82
2022-11-16T22:45:57.064Z,66.58
2022-11-16T22:47:45.102Z,66.39
2022-11-16T22:49:32.277Z,67.39
2022-11-16T22:51:20.582Z,64.68
2022-11-16T22:53:06.799Z,66.44
2022-11-16T22:54:53.084Z,65.02
2022-11-16T22:56:39.589Z,73.60
2022-11-16T22:58:25.846Z,69.75
2022-11-16T23:00:12.114Z,65.82
2022-11-16T23:01:58.596Z,69.19
2022-11-16T23:03:44.924Z,67.38
2022-11-16T23:05:31.182Z,68.00
2022-11-16T23:07:17.434Z,67.66
2022-11-16T23:09:03.787Z,66.56
2022-11-16T23:10:50.006Z,67.41
2022-11-16T23:12:36.218Z,65.47
2022-11-16T23:14:22.736Z,69.09
2022-11-16T23:16:09.185Z,70.21
2022-11-16T23:17:55.434Z,68.67
2022-11-16T23:19:41.676Z,68.18
2022-11-16T23:21:27.860Z,68.18
2022-11-16T23:23:14.403Z,67.87
2022-11-16T23:25:00.449Z,69.09
2022-11-16T23:26:46.684Z,70.60
2022-11-16T23:28:32.916Z,66.70
2022-11-16T23:30:19.410Z,71.22
2022-11-16T23:32:05.645Z,69.43
2022-11-16T23:33:51.787Z,69.34
2022-11-16T23:35:38.014Z,68.73
2022-11-16T23:37:24.456Z,67.03
2022-11-16T23:39:10.792Z,70.47
2022-11-16T23:40:56.947Z,71.08
2022-11-16T23:42:43.115Z,70.38
2022-11-16T23:44:29.689Z,70.71
2022-11-16T23:46:15.951Z,69.60
2022-11-16T23:48:02.152Z,71.60
